sensor_id;sensor_type;location;lat;lon;timestamp;P1;durP1;ratioP1;P2;durP2;ratioP2
25049;SDS011;13046;49.814;9.918;2023-05-20T00:02:06;9.38;;;7.03;;
25049;SDS011;13046;49.814;9.918;2023-05-20T00:04:31;7.80;;;7.00;;
25049;SDS011;13046;49.814;9.918;2023-05-20T00:06:57;7.93;;;6.32;;
25049;SDS011;13046;49.814;9.918;2023-05-20T00:09:23;8.40;;;6.50;;
25049;SDS011;13046;49.814;9.918;2023-05-20T00:11:48;9.73;;;5.90;;
25049;SDS011;13046;49.814;9.918;2023-05-20T00:14:14;6.45;;;5.85;;
25049;SDS011;13046;49.814;9.918;2023-05-20T00:16:40;8.02;;;7.05;;
25049;SDS011;13046;49.814;9.918;2023-05-20T00:19:06;8.05;;;7.35;;
25049;SDS011;13046;49.814;9.918;2023-05-20T00:21:31;8.10;;;7.03;;
25049;SDS011;13046;49.814;9.918;2023-05-20T00:23:58;7.30;;;6.60;;
25049;SDS011;13046;49.814;9.918;2023-05-20T00:26:23;8.82;;;6.63;;
25049;SDS011;13046;49.814;9.918;2023-05-20T00:28:53;9.43;;;6.80;;
25049;SDS011;13046;49.814;9.918;2023-05-20T00:31:19;7.25;;;6.55;;
25049;SDS011;13046;49.814;9.918;2023-05-20T00:33:45;7.38;;;6.65;;
25049;SDS011;13046;49.814;9.918;2023-05-20T00:36:11;8.38;;;7.18;;
25049;SDS011;13046;49.814;9.918;2023-05-20T00:38:37;7.20;;;6.50;;
25049;SDS011;13046;49.814;9.918;2023-05-20T00:41:02;7.28;;;6.57;;
25049;SDS011;13046;49.814;9.918;2023-05-20T00:43:28;9.35;;;6.10;;
25049;SDS011;13046;49.814;9.918;2023-05-20T00:45:54;9.05;;;6.95;;
25049;SDS011;13046;49.814;9.918;2023-05-20T00:48:20;7.43;;;6.68;;
25049;SDS011;13046;49.814;9.918;2023-05-20T00:50:47;9.15;;;7.22;;
25049;SDS011;13046;49.814;9.918;2023-05-20T00:53:15;7.47;;;6.75;;
25049;SDS011;13046;49.814;9.918;2023-05-20T00:55:42;8.05;;;7.20;;
25049;SDS011;13046;49.814;9.918;2023-05-20T00:58:08;7.55;;;6.85;;
25049;SDS011;13046;49.814;9.918;2023-05-20T01:00:34;7.85;;;7.15;;
25049;SDS011;13046;49.814;9.918;2023-05-20T01:03:00;7.47;;;6.78;;
25049;SDS011;13046;49.814;9.918;2023-05-20T01:05:26;7.30;;;6.60;;
25049;SDS011;13046;49.814;9.918;2023-05-20T01:07:52;7.88;;;7.15;;
25049;SDS011;13046;49.814;9.918;2023-05-20T01:10:18;8.65;;;7.10;;
25049;SDS011;13046;49.814;9.918;2023-05-20T01:12:47;9.35;;;7.22;;
25049;SDS011;13046;49.814;9.918;2023-05-20T01:15:23;10.20;;;7.88;;
25049;SDS011;13046;49.814;9.918;2023-05-20T01:17:51;7.97;;;7.18;;
25049;SDS011;13046;49.814;9.918;2023-05-20T01:20:22;8.23;;;7.53;;
25049;SDS011;13046;49.814;9.918;2023-05-20T01:22:53;7.70;;;6.85;;
25049;SDS011;13046;49.814;9.918;2023-05-20T01:25:20;7.97;;;7.13;;
25049;SDS011;13046;49.814;9.918;2023-05-20T01:27:46;9.48;;;8.50;;
25049;SDS011;13046;49.814;9.918;2023-05-20T01:30:13;8.15;;;7.35;;
25049;SDS011;13046;49.814;9.918;2023-05-20T01:32:49;8.75;;;6.97;;
25049;SDS011;13046;49.814;9.918;2023-05-20T01:35:19;8.65;;;7.85;;
25049;SDS011;13046;49.814;9.918;2023-05-20T01:37:48;7.95;;;7.25;;
25049;SDS011;13046;49.814;9.918;2023-05-20T01:40:16;7.70;;;6.97;;
25049;SDS011;13046;49.814;9.918;2023-05-20T01:42:43;8.82;;;7.50;;
25049;SDS011;13046;49.814;9.918;2023-05-20T01:45:10;7.63;;;7.00;;
25049;SDS011;13046;49.814;9.918;2023-05-20T01:47:36;8.35;;;7.57;;
25049;SDS011;13046;49.814;9.918;2023-05-20T01:50:02;8.23;;;6.80;;
25049;SDS011;13046;49.814;9.918;2023-05-20T01:52:28;8.45;;;6.93;;
25049;SDS011;13046;49.814;9.918;2023-05-20T01:54:55;8.52;;;7.80;;
25049;SDS011;13046;49.814;9.918;2023-05-20T01:57:21;7.97;;;7.28;;
25049;SDS011;13046;49.814;9.918;2023-05-20T01:59:49;8.75;;;7.85;;
25049;SDS011;13046;49.814;9.918;2023-05-20T02:02:15;11.23;;;8.25;;
25049;SDS011;13046;49.814;9.918;2023-05-20T02:04:44;10.73;;;8.43;;
25049;SDS011;13046;49.814;9.918;2023-05-20T02:07:13;8.23;;;7.38;;
25049;SDS011;13046;49.814;9.918;2023-05-20T02:09:39;10.23;;;7.93;;
25049;SDS011;13046;49.814;9.918;2023-05-20T02:12:06;9.50;;;7.53;;
25049;SDS011;13046;49.814;9.918;2023-05-20T02:14:33;9.35;;;7.70;;
25049;SDS011;13046;49.814;9.918;2023-05-20T02:16:59;8.73;;;7.93;;
25049;SDS011;13046;49.814;9.918;2023-05-20T02:19:25;10.65;;;7.95;;
25049;SDS011;13046;49.814;9.918;2023-05-20T02:21:51;9.82;;;7.80;;
25049;SDS011;13046;49.814;9.918;2023-05-20T02:24:18;8.70;;;7.80;;
25049;SDS011;13046;49.814;9.918;2023-05-20T02:26:46;11.43;;;8.60;;
25049;SDS011;13046;49.814;9.918;2023-05-20T02:29:15;8.18;;;7.55;;
25049;SDS011;13046;49.814;9.918;2023-05-20T02:31:41;9.07;;;8.15;;
25049;SDS011;13046;49.814;9.918;2023-05-20T02:34:07;12.35;;;8.45;;
25049;SDS011;13046;49.814;9.918;2023-05-20T02:36:32;8.77;;;7.97;;
25049;SDS011;13046;49.814;9.918;2023-05-20T02:39:00;10.20;;;9.18;;
25049;SDS011;13046;49.814;9.918;2023-05-20T02:41:26;8.48;;;7.68;;
25049;SDS011;13046;49.814;9.918;2023-05-20T02:43:52;12.30;;;8.82;;
25049;SDS011;13046;49.814;9.918;2023-05-20T02:46:18;8.68;;;7.88;;
25049;SDS011;13046;49.814;9.918;2023-05-20T02:48:44;9.63;;;8.70;;
25049;SDS011;13046;49.814;9.918;2023-05-20T02:51:10;12.48;;;8.25;;
25049;SDS011;13046;49.814;9.918;2023-05-20T02:53:35;14.50;;;8.70;;
25049;SDS011;13046;49.814;9.918;2023-05-20T02:56:02;10.15;;;8.90;;
25049;SDS011;13046;49.814;9.918;2023-05-20T02:58:28;8.18;;;7.32;;
25049;SDS011;13046;49.814;9.918;2023-05-20T03:00:54;9.80;;;8.77;;
25049;SDS011;13046;49.814;9.918;2023-05-20T03:03:22;9.15;;;8.35;;
25049;SDS011;13046;49.814;9.918;2023-05-20T03:05:49;11.60;;;8.85;;
25049;SDS011;13046;49.814;9.918;2023-05-20T03:08:17;9.68;;;8.82;;
25049;SDS011;13046;49.814;9.918;2023-05-20T03:10:44;8.73;;;7.82;;
25049;SDS011;13046;49.814;9.918;2023-05-20T03:13:10;9.40;;;8.50;;
25049;SDS011;13046;49.814;9.918;2023-05-20T03:15:36;11.88;;;9.10;;
25049;SDS011;13046;49.814;9.918;2023-05-20T03:18:03;10.73;;;9.40;;
25049;SDS011;13046;49.814;9.918;2023-05-20T03:20:30;9.98;;;9.00;;
25049;SDS011;13046;49.814;9.918;2023-05-20T03:23:01;11.02;;;9.10;;
25049;SDS011;13046;49.814;9.918;2023-05-20T03:25:27;10.23;;;9.13;;
25049;SDS011;13046;49.814;9.918;2023-05-20T03:27:53;9.65;;;8.63;;
25049;SDS011;13046;49.814;9.918;2023-05-20T03:30:19;11.02;;;9.93;;
25049;SDS011;13046;49.814;9.918;2023-05-20T03:32:46;10.02;;;9.10;;
25049;SDS011;13046;49.814;9.918;2023-05-20T03:35:11;11.45;;;9.68;;
25049;SDS011;13046;49.814;9.918;2023-05-20T03:37:37;10.73;;;9.55;;
25049;SDS011;13046;49.814;9.918;2023-05-20T03:40:04;10.45;;;9.38;;
25049;SDS011;13046;49.814;9.918;2023-05-20T03:42:34;10.30;;;8.68;;
25049;SDS011;13046;49.814;9.918;2023-05-20T03:45:01;10.45;;;9.45;;
25049;SDS011;13046;49.814;9.918;2023-05-20T03:47:30;10.88;;;9.77;;
25049;SDS011;13046;49.814;9.918;2023-05-20T03:49:56;13.23;;;9.73;;
25049;SDS011;13046;49.814;9.918;2023-05-20T03:52:22;10.70;;;9.68;;
25049;SDS011;13046;49.814;9.918;2023-05-20T03:54:47;11.27;;;10.23;;
25049;SDS011;13046;49.814;9.918;2023-05-20T03:57:13;9.82;;;9.02;;
25049;SDS011;13046;49.814;9.918;2023-05-20T03:59:40;12.32;;;11.02;;
25049;SDS011;13046;49.814;9.918;2023-05-20T04:02:07;11.23;;;9.88;;
25049;SDS011;13046;49.814;9.918;2023-05-20T04:04:33;10.65;;;9.15;;
25049;SDS011;13046;49.814;9.918;2023-05-20T04:06:59;10.20;;;9.18;;
25049;SDS011;13046;49.814;9.918;2023-05-20T04:09:25;10.80;;;9.80;;
25049;SDS011;13046;49.814;9.918;2023-05-20T04:11:51;11.18;;;9.88;;
25049;SDS011;13046;49.814;9.918;2023-05-20T04:14:17;10.60;;;9.40;;
25049;SDS011;13046;49.814;9.918;2023-05-20T04:16:43;10.10;;;9.18;;
25049;SDS011;13046;49.814;9.918;2023-05-20T04:19:10;11.10;;;10.05;;
25049;SDS011;13046;49.814;9.918;2023-05-20T04:21:36;11.43;;;9.55;;
25049;SDS011;13046;49.814;9.918;2023-05-20T04:24:03;10.63;;;8.93;;
25049;SDS011;13046;49.814;9.918;2023-05-20T04:26:28;11.23;;;10.15;;
25049;SDS011;13046;49.814;9.918;2023-05-20T04:28:54;12.38;;;10.10;;
25049;SDS011;13046;49.814;9.918;2023-05-20T04:31:23;11.88;;;10.05;;
25049;SDS011;13046;49.814;9.918;2023-05-20T04:33:51;9.45;;;8.63;;
25049;SDS011;13046;49.814;9.918;2023-05-20T04:36:18;10.77;;;9.77;;
25049;SDS011;13046;49.814;9.918;2023-05-20T04:38:44;10.00;;;9.10;;
25049;SDS011;13046;49.814;9.918;2023-05-20T04:41:12;13.70;;;11.07;;
25049;SDS011;13046;49.814;9.918;2023-05-20T04:43:40;12.00;;;9.45;;
25049;SDS011;13046;49.814;9.918;2023-05-20T04:46:05;11.02;;;9.95;;
25049;SDS011;13046;49.814;9.918;2023-05-20T04:48:32;10.27;;;9.38;;
25049;SDS011;13046;49.814;9.918;2023-05-20T04:50:58;13.02;;;11.35;;
25049;SDS011;13046;49.814;9.918;2023-05-20T04:53:24;12.18;;;10.98;;
25049;SDS011;13046;49.814;9.918;2023-05-20T04:55:53;11.35;;;10.25;;
25049;SDS011;13046;49.814;9.918;2023-05-20T04:58:22;10.88;;;9.77;;
25049;SDS011;13046;49.814;9.918;2023-05-20T05:00:49;13.60;;;10.95;;
25049;SDS011;13046;49.814;9.918;2023-05-20T05:03:16;11.38;;;9.82;;
25049;SDS011;13046;49.814;9.918;2023-05-20T05:05:42;12.00;;;10.80;;
25049;SDS011;13046;49.814;9.918;2023-05-20T05:08:08;11.98;;;10.77;;
25049;SDS011;13046;49.814;9.918;2023-05-20T05:10:43;11.90;;;10.80;;
25049;SDS011;13046;49.814;9.918;2023-05-20T05:13:10;12.18;;;10.95;;
25049;SDS011;13046;49.814;9.918;2023-05-20T05:15:36;12.43;;;11.05;;
25049;SDS011;13046;49.814;9.918;2023-05-20T05:18:02;14.55;;;11.68;;
25049;SDS011;13046;49.814;9.918;2023-05-20T05:20:29;12.00;;;10.82;;
25049;SDS011;13046;49.814;9.918;2023-05-20T05:22:55;12.57;;;10.40;;
25049;SDS011;13046;49.814;9.918;2023-05-20T05:25:20;13.30;;;12.10;;
25049;SDS011;13046;49.814;9.918;2023-05-20T05:27:46;12.57;;;11.25;;
25049;SDS011;13046;49.814;9.918;2023-05-20T05:30:14;11.80;;;10.80;;
25049;SDS011;13046;49.814;9.918;2023-05-20T05:32:40;12.10;;;10.80;;
25049;SDS011;13046;49.814;9.918;2023-05-20T05:35:06;13.10;;;11.63;;
25049;SDS011;13046;49.814;9.918;2023-05-20T05:37:32;13.15;;;11.85;;
25049;SDS011;13046;49.814;9.918;2023-05-20T05:39:58;12.85;;;11.65;;
25049;SDS011;13046;49.814;9.918;2023-05-20T05:42:24;14.80;;;13.25;;
25049;SDS011;13046;49.814;9.918;2023-05-20T05:44:50;13.52;;;11.82;;
25049;SDS011;13046;49.814;9.918;2023-05-20T05:47:17;13.35;;;12.05;;
25049;SDS011;13046;49.814;9.918;2023-05-20T05:49:43;11.90;;;10.73;;
25049;SDS011;13046;49.814;9.918;2023-05-20T05:52:09;13.45;;;12.25;;
25049;SDS011;13046;49.814;9.918;2023-05-20T05:54:34;12.07;;;10.65;;
25049;SDS011;13046;49.814;9.918;2023-05-20T05:57:00;13.13;;;11.85;;
25049;SDS011;13046;49.814;9.918;2023-05-20T05:59:29;15.00;;;13.60;;
25049;SDS011;13046;49.814;9.918;2023-05-20T06:01:55;13.63;;;12.43;;
25049;SDS011;13046;49.814;9.918;2023-05-20T06:04:20;17.02;;;11.65;;
25049;SDS011;13046;49.814;9.918;2023-05-20T06:06:47;14.93;;;13.07;;
25049;SDS011;13046;49.814;9.918;2023-05-20T06:09:14;14.65;;;13.13;;
25049;SDS011;13046;49.814;9.918;2023-05-20T06:11:40;15.20;;;13.77;;
25049;SDS011;13046;49.814;9.918;2023-05-20T06:14:08;14.05;;;12.65;;
25049;SDS011;13046;49.814;9.918;2023-05-20T06:16:34;15.07;;;13.50;;
25049;SDS011;13046;49.814;9.918;2023-05-20T06:19:00;15.00;;;13.50;;
25049;SDS011;13046;49.814;9.918;2023-05-20T06:21:26;13.65;;;12.40;;
25049;SDS011;13046;49.814;9.918;2023-05-20T06:23:52;14.75;;;13.35;;
25049;SDS011;13046;49.814;9.918;2023-05-20T06:26:17;14.02;;;12.77;;
25049;SDS011;13046;49.814;9.918;2023-05-20T06:28:43;14.65;;;13.32;;
25049;SDS011;13046;49.814;9.918;2023-05-20T06:31:09;14.85;;;13.35;;
25049;SDS011;13046;49.814;9.918;2023-05-20T06:33:34;17.00;;;15.30;;
25049;SDS011;13046;49.814;9.918;2023-05-20T06:36:06;14.30;;;13.00;;
25049;SDS011;13046;49.814;9.918;2023-05-20T06:38:32;16.75;;;15.10;;
25049;SDS011;13046;49.814;9.918;2023-05-20T06:40:59;16.05;;;14.02;;
25049;SDS011;13046;49.814;9.918;2023-05-20T06:43:25;16.30;;;14.68;;
25049;SDS011;13046;49.814;9.918;2023-05-20T06:45:55;15.65;;;14.05;;
25049;SDS011;13046;49.814;9.918;2023-05-20T06:48:32;15.20;;;13.75;;
25049;SDS011;13046;49.814;9.918;2023-05-20T06:50:58;16.58;;;13.18;;
25049;SDS011;13046;49.814;9.918;2023-05-20T06:53:24;19.80;;;15.18;;
25049;SDS011;13046;49.814;9.918;2023-05-20T06:55:51;16.38;;;14.55;;
25049;SDS011;13046;49.814;9.918;2023-05-20T06:58:19;16.98;;;14.98;;
25049;SDS011;13046;49.814;9.918;2023-05-20T07:00:46;14.85;;;13.07;;
25049;SDS011;13046;49.814;9.918;2023-05-20T07:03:13;15.75;;;14.23;;
25049;SDS011;13046;49.814;9.918;2023-05-20T07:05:38;16.85;;;14.50;;
25049;SDS011;13046;49.814;9.918;2023-05-20T07:08:06;15.75;;;14.25;;
25049;SDS011;13046;49.814;9.918;2023-05-20T07:10:32;15.77;;;13.73;;
25049;SDS011;13046;49.814;9.918;2023-05-20T07:12:58;15.73;;;14.18;;
25049;SDS011;13046;49.814;9.918;2023-05-20T07:15:24;17.38;;;15.57;;
25049;SDS011;13046;49.814;9.918;2023-05-20T07:17:50;16.55;;;14.95;;
25049;SDS011;13046;49.814;9.918;2023-05-20T07:20:16;15.43;;;13.85;;
25049;SDS011;13046;49.814;9.918;2023-05-20T07:22:42;15.90;;;14.35;;
25049;SDS011;13046;49.814;9.918;2023-05-20T07:25:19;17.05;;;14.90;;
25049;SDS011;13046;49.814;9.918;2023-05-20T07:27:45;16.83;;;15.23;;
25049;SDS011;13046;49.814;9.918;2023-05-20T07:30:11;16.58;;;14.48;;
25049;SDS011;13046;49.814;9.918;2023-05-20T07:32:39;15.15;;;13.75;;
25049;SDS011;13046;49.814;9.918;2023-05-20T07:35:05;15.43;;;13.75;;
25049;SDS011;13046;49.814;9.918;2023-05-20T07:37:31;15.73;;;14.10;;
25049;SDS011;13046;49.814;9.918;2023-05-20T07:39:56;15.23;;;13.32;;
25049;SDS011;13046;49.814;9.918;2023-05-20T07:42:22;16.40;;;14.07;;
25049;SDS011;13046;49.814;9.918;2023-05-20T07:44:52;17.33;;;15.57;;
25049;SDS011;13046;49.814;9.918;2023-05-20T07:47:18;15.48;;;13.98;;
25049;SDS011;13046;49.814;9.918;2023-05-20T07:49:43;16.05;;;14.45;;
25049;SDS011;13046;49.814;9.918;2023-05-20T07:52:10;15.65;;;14.05;;
25049;SDS011;13046;49.814;9.918;2023-05-20T07:54:36;15.02;;;13.55;;
25049;SDS011;13046;49.814;9.918;2023-05-20T07:57:02;16.05;;;14.65;;
25049;SDS011;13046;49.814;9.918;2023-05-20T07:59:29;18.17;;;14.35;;
25049;SDS011;13046;49.814;9.918;2023-05-20T08:01:54;17.83;;;15.55;;
25049;SDS011;13046;49.814;9.918;2023-05-20T08:04:21;16.70;;;13.63;;
25049;SDS011;13046;49.814;9.918;2023-05-20T08:06:47;16.98;;;15.45;;
25049;SDS011;13046;49.814;9.918;2023-05-20T08:09:20;17.92;;;15.60;;
25049;SDS011;13046;49.814;9.918;2023-05-20T08:11:49;15.68;;;14.07;;
25049;SDS011;13046;49.814;9.918;2023-05-20T08:14:15;14.63;;;13.15;;
25049;SDS011;13046;49.814;9.918;2023-05-20T08:16:43;14.35;;;12.95;;
25049;SDS011;13046;49.814;9.918;2023-05-20T08:19:09;15.65;;;14.00;;
25049;SDS011;13046;49.814;9.918;2023-05-20T08:21:34;16.48;;;13.77;;
25049;SDS011;13046;49.814;9.918;2023-05-20T08:24:00;14.88;;;13.55;;
25049;SDS011;13046;49.814;9.918;2023-05-20T08:26:26;15.18;;;13.57;;
25049;SDS011;13046;49.814;9.918;2023-05-20T08:28:53;15.18;;;13.70;;
25049;SDS011;13046;49.814;9.918;2023-05-20T08:31:18;14.73;;;13.20;;
25049;SDS011;13046;49.814;9.918;2023-05-20T08:33:44;13.70;;;12.40;;
25049;SDS011;13046;49.814;9.918;2023-05-20T08:36:10;14.55;;;13.15;;
25049;SDS011;13046;49.814;9.918;2023-05-20T08:38:36;15.45;;;13.82;;
25049;SDS011;13046;49.814;9.918;2023-05-20T08:41:01;15.20;;;13.70;;
25049;SDS011;13046;49.814;9.918;2023-05-20T08:43:27;13.82;;;12.57;;
25049;SDS011;13046;49.814;9.918;2023-05-20T08:45:54;15.75;;;14.15;;
25049;SDS011;13046;49.814;9.918;2023-05-20T08:48:24;13.50;;;12.30;;
25049;SDS011;13046;49.814;9.918;2023-05-20T08:50:51;15.32;;;13.80;;
25049;SDS011;13046;49.814;9.918;2023-05-20T08:53:21;13.52;;;12.02;;
25049;SDS011;13046;49.814;9.918;2023-05-20T08:55:54;15.38;;;13.85;;
25049;SDS011;13046;49.814;9.918;2023-05-20T08:58:22;15.07;;;13.57;;
25049;SDS011;13046;49.814;9.918;2023-05-20T09:00:49;17.90;;;13.77;;
25049;SDS011;13046;49.814;9.918;2023-05-20T09:03:17;14.05;;;12.70;;
25049;SDS011;13046;49.814;9.918;2023-05-20T09:05:44;13.90;;;12.57;;
25049;SDS011;13046;49.814;9.918;2023-05-20T09:08:10;13.98;;;12.68;;
25049;SDS011;13046;49.814;9.918;2023-05-20T09:10:37;14.70;;;12.77;;
25049;SDS011;13046;49.814;9.918;2023-05-20T09:13:04;13.73;;;12.48;;
25049;SDS011;13046;49.814;9.918;2023-05-20T09:15:31;14.07;;;12.80;;
25049;SDS011;13046;49.814;9.918;2023-05-20T09:18:00;13.48;;;12.18;;
25049;SDS011;13046;49.814;9.918;2023-05-20T09:20:27;14.13;;;12.93;;
25049;SDS011;13046;49.814;9.918;2023-05-20T09:22:57;16.40;;;12.43;;
25049;SDS011;13046;49.814;9.918;2023-05-20T09:25:24;16.85;;;13.00;;
25049;SDS011;13046;49.814;9.918;2023-05-20T09:27:50;12.82;;;11.65;;
25049;SDS011;13046;49.814;9.918;2023-05-20T09:30:19;13.93;;;12.52;;
25049;SDS011;13046;49.814;9.918;2023-05-20T09:32:51;14.85;;;13.35;;
25049;SDS011;13046;49.814;9.918;2023-05-20T09:35:23;12.75;;;11.50;;
25049;SDS011;13046;49.814;9.918;2023-05-20T09:37:56;13.85;;;12.23;;
25049;SDS011;13046;49.814;9.918;2023-05-20T09:40:23;13.93;;;12.50;;
25049;SDS011;13046;49.814;9.918;2023-05-20T09:42:55;13.20;;;11.93;;
25049;SDS011;13046;49.814;9.918;2023-05-20T09:45:22;13.55;;;12.20;;
25049;SDS011;13046;49.814;9.918;2023-05-20T09:47:51;14.88;;;13.27;;
25049;SDS011;13046;49.814;9.918;2023-05-20T09:50:19;15.30;;;13.90;;
25049;SDS011;13046;49.814;9.918;2023-05-20T09:52:46;13.60;;;12.23;;
25049;SDS011;13046;49.814;9.918;2023-05-20T09:55:13;13.90;;;12.30;;
25049;SDS011;13046;49.814;9.918;2023-05-20T09:57:41;13.98;;;12.68;;
25049;SDS011;13046;49.814;9.918;2023-05-20T10:00:07;14.57;;;13.38;;
25049;SDS011;13046;49.814;9.918;2023-05-20T10:02:44;15.32;;;14.00;;
25049;SDS011;13046;49.814;9.918;2023-05-20T10:05:16;13.43;;;12.20;;
25049;SDS011;13046;49.814;9.918;2023-05-20T10:07:48;14.30;;;12.80;;
25049;SDS011;13046;49.814;9.918;2023-05-20T10:19:12;12.43;;;11.32;;
25049;SDS011;13046;49.814;9.918;2023-05-20T10:24:32;13.05;;;11.75;;
25049;SDS011;13046;49.814;9.918;2023-05-20T10:27:02;14.15;;;12.73;;
25049;SDS011;13046;49.814;9.918;2023-05-20T10:32:47;14.02;;;12.73;;
25049;SDS011;13046;49.814;9.918;2023-05-20T10:35:19;14.02;;;12.73;;
25049;SDS011;13046;49.814;9.918;2023-05-20T10:37:46;12.55;;;11.45;;
25049;SDS011;13046;49.814;9.918;2023-05-20T10:40:13;11.82;;;10.60;;
25049;SDS011;13046;49.814;9.918;2023-05-20T10:42:40;17.17;;;12.35;;
25049;SDS011;13046;49.814;9.918;2023-05-20T10:45:06;12.35;;;11.15;;
25049;SDS011;13046;49.814;9.918;2023-05-20T10:47:33;13.40;;;12.00;;
25049;SDS011;13046;49.814;9.918;2023-05-20T10:50:00;12.18;;;11.00;;
25049;SDS011;13046;49.814;9.918;2023-05-20T10:52:33;13.95;;;12.60;;
25049;SDS011;13046;49.814;9.918;2023-05-20T10:55:01;13.00;;;11.65;;
25049;SDS011;13046;49.814;9.918;2023-05-20T10:57:29;13.10;;;11.90;;
25049;SDS011;13046;49.814;9.918;2023-05-20T10:59:56;12.45;;;11.35;;
25049;SDS011;13046;49.814;9.918;2023-05-20T11:02:22;12.35;;;11.15;;
25049;SDS011;13046;49.814;9.918;2023-05-20T11:04:51;12.43;;;11.40;;
25049;SDS011;13046;49.814;9.918;2023-05-20T11:07:24;12.70;;;11.20;;
25049;SDS011;13046;49.814;9.918;2023-05-20T11:09:51;12.75;;;11.55;;
25049;SDS011;13046;49.814;9.918;2023-05-20T11:12:17;13.02;;;11.68;;
25049;SDS011;13046;49.814;9.918;2023-05-20T11:14:42;13.02;;;11.93;;
25049;SDS011;13046;49.814;9.918;2023-05-20T11:17:08;14.25;;;12.95;;
25049;SDS011;13046;49.814;9.918;2023-05-20T11:19:35;13.65;;;12.43;;
25049;SDS011;13046;49.814;9.918;2023-05-20T11:22:01;13.35;;;12.05;;
25049;SDS011;13046;49.814;9.918;2023-05-20T11:24:27;12.40;;;11.30;;
25049;SDS011;13046;49.814;9.918;2023-05-20T11:26:54;12.63;;;11.38;;
25049;SDS011;13046;49.814;9.918;2023-05-20T11:29:20;13.23;;;11.95;;
25049;SDS011;13046;49.814;9.918;2023-05-20T11:31:49;13.82;;;12.52;;
25049;SDS011;13046;49.814;9.918;2023-05-20T11:34:18;12.82;;;11.63;;
25049;SDS011;13046;49.814;9.918;2023-05-20T11:36:47;13.38;;;11.48;;
25049;SDS011;13046;49.814;9.918;2023-05-20T11:39:16;13.35;;;11.50;;
25049;SDS011;13046;49.814;9.918;2023-05-20T11:41:41;13.88;;;11.38;;
25049;SDS011;13046;49.814;9.918;2023-05-20T11:44:10;12.10;;;10.90;;
25049;SDS011;13046;49.814;9.918;2023-05-20T11:46:40;13.10;;;11.82;;
25049;SDS011;13046;49.814;9.918;2023-05-20T11:49:07;13.57;;;12.15;;
25049;SDS011;13046;49.814;9.918;2023-05-20T11:51:33;12.68;;;11.57;;
25049;SDS011;13046;49.814;9.918;2023-05-20T11:53:59;13.30;;;12.00;;
25049;SDS011;13046;49.814;9.918;2023-05-20T11:56:29;14.40;;;12.13;;
25049;SDS011;13046;49.814;9.918;2023-05-20T11:59:00;30.10;;;12.70;;
25049;SDS011;13046;49.814;9.918;2023-05-20T12:01:28;13.27;;;12.07;;
25049;SDS011;13046;49.814;9.918;2023-05-20T12:03:54;12.95;;;11.70;;
25049;SDS011;13046;49.814;9.918;2023-05-20T12:06:20;12.35;;;11.15;;
25049;SDS011;13046;49.814;9.918;2023-05-20T12:08:46;12.82;;;11.52;;
25049;SDS011;13046;49.814;9.918;2023-05-20T12:11:12;12.32;;;11.13;;
25049;SDS011;13046;49.814;9.918;2023-05-20T12:13:38;13.77;;;12.50;;
25049;SDS011;13046;49.814;9.918;2023-05-20T12:16:04;11.93;;;10.75;;
25049;SDS011;13046;49.814;9.918;2023-05-20T12:18:30;13.38;;;11.52;;
25049;SDS011;13046;49.814;9.918;2023-05-20T12:20:57;13.07;;;11.45;;
25049;SDS011;13046;49.814;9.918;2023-05-20T12:23:23;11.77;;;10.75;;
25049;SDS011;13046;49.814;9.918;2023-05-20T12:25:48;13.75;;;11.30;;
25049;SDS011;13046;49.814;9.918;2023-05-20T12:28:14;13.82;;;12.63;;
25049;SDS011;13046;49.814;9.918;2023-05-20T12:30:41;13.40;;;12.10;;
25049;SDS011;13046;49.814;9.918;2023-05-20T12:33:08;14.52;;;12.05;;
25049;SDS011;13046;49.814;9.918;2023-05-20T12:35:37;13.20;;;11.90;;
25049;SDS011;13046;49.814;9.918;2023-05-20T12:38:04;13.77;;;11.32;;
25049;SDS011;13046;49.814;9.918;2023-05-20T12:40:31;12.68;;;11.40;;
25049;SDS011;13046;49.814;9.918;2023-05-20T12:42:57;13.13;;;11.82;;
25049;SDS011;13046;49.814;9.918;2023-05-20T12:45:23;12.88;;;11.65;;
25049;SDS011;13046;49.814;9.918;2023-05-20T12:47:49;12.90;;;11.73;;
25049;SDS011;13046;49.814;9.918;2023-05-20T12:50:15;12.77;;;11.57;;
25049;SDS011;13046;49.814;9.918;2023-05-20T12:52:41;11.93;;;10.73;;
25049;SDS011;13046;49.814;9.918;2023-05-20T12:55:07;12.77;;;11.55;;
25049;SDS011;13046;49.814;9.918;2023-05-20T12:57:40;14.88;;;11.32;;
25049;SDS011;13046;49.814;9.918;2023-05-20T13:00:08;11.88;;;10.68;;
25049;SDS011;13046;49.814;9.918;2023-05-20T13:02:35;12.02;;;10.95;;
25049;SDS011;13046;49.814;9.918;2023-05-20T13:05:00;12.15;;;11.05;;
25049;SDS011;13046;49.814;9.918;2023-05-20T13:07:26;11.77;;;10.77;;
25049;SDS011;13046;49.814;9.918;2023-05-20T13:09:53;12.32;;;11.02;;
25049;SDS011;13046;49.814;9.918;2023-05-20T13:12:19;11.90;;;10.90;;
25049;SDS011;13046;49.814;9.918;2023-05-20T13:14:44;13.25;;;11.98;;
25049;SDS011;13046;49.814;9.918;2023-05-20T13:17:10;12.93;;;11.65;;
25049;SDS011;13046;49.814;9.918;2023-05-20T13:19:36;13.30;;;12.10;;
25049;SDS011;13046;49.814;9.918;2023-05-20T13:22:02;12.55;;;11.52;;
25049;SDS011;13046;49.814;9.918;2023-05-20T13:24:30;12.60;;;11.35;;
25049;SDS011;13046;49.814;9.918;2023-05-20T13:26:56;12.27;;;11.07;;
25049;SDS011;13046;49.814;9.918;2023-05-20T13:29:21;11.32;;;10.13;;
25049;SDS011;13046;49.814;9.918;2023-05-20T13:31:47;11.18;;;10.18;;
25049;SDS011;13046;49.814;9.918;2023-05-20T13:34:13;13.02;;;11.77;;
25049;SDS011;13046;49.814;9.918;2023-05-20T13:36:39;12.38;;;11.23;;
25049;SDS011;13046;49.814;9.918;2023-05-20T13:39:05;14.57;;;11.30;;
25049;SDS011;13046;49.814;9.918;2023-05-20T13:41:31;12.00;;;10.88;;
25049;SDS011;13046;49.814;9.918;2023-05-20T13:43:57;13.02;;;11.75;;
25049;SDS011;13046;49.814;9.918;2023-05-20T13:46:22;11.45;;;10.40;;
25049;SDS011;13046;49.814;9.918;2023-05-20T13:48:48;13.55;;;12.18;;
25049;SDS011;13046;49.814;9.918;2023-05-20T13:51:14;11.73;;;10.73;;
25049;SDS011;13046;49.814;9.918;2023-05-20T13:53:40;12.75;;;11.65;;
25049;SDS011;13046;49.814;9.918;2023-05-20T13:56:06;12.68;;;10.77;;
25049;SDS011;13046;49.814;9.918;2023-05-20T13:58:34;12.90;;;11.60;;
25049;SDS011;13046;49.814;9.918;2023-05-20T14:01:01;15.70;;;12.80;;
25049;SDS011;13046;49.814;9.918;2023-05-20T14:03:28;12.73;;;11.35;;
25049;SDS011;13046;49.814;9.918;2023-05-20T14:05:55;12.35;;;11.15;;
25049;SDS011;13046;49.814;9.918;2023-05-20T14:08:21;12.27;;;10.65;;
25049;SDS011;13046;49.814;9.918;2023-05-20T14:10:47;12.32;;;11.05;;
25049;SDS011;13046;49.814;9.918;2023-05-20T14:13:13;11.00;;;10.10;;
25049;SDS011;13046;49.814;9.918;2023-05-20T14:15:38;12.05;;;10.90;;
25049;SDS011;13046;49.814;9.918;2023-05-20T14:18:04;10.75;;;9.75;;
25049;SDS011;13046;49.814;9.918;2023-05-20T14:20:30;11.70;;;10.57;;
25049;SDS011;13046;49.814;9.918;2023-05-20T14:22:55;11.32;;;10.20;;
25049;SDS011;13046;49.814;9.918;2023-05-20T14:25:21;11.70;;;10.52;;
25049;SDS011;13046;49.814;9.918;2023-05-20T14:27:47;11.82;;;10.63;;
25049;SDS011;13046;49.814;9.918;2023-05-20T14:30:14;11.65;;;10.45;;
25049;SDS011;13046;49.814;9.918;2023-05-20T14:32:40;12.30;;;11.25;;
25049;SDS011;13046;49.814;9.918;2023-05-20T14:35:05;10.93;;;9.93;;
25049;SDS011;13046;49.814;9.918;2023-05-20T14:37:31;12.05;;;10.82;;
25049;SDS011;13046;49.814;9.918;2023-05-20T14:39:57;11.57;;;10.38;;
25049;SDS011;13046;49.814;9.918;2023-05-20T14:42:23;11.68;;;10.57;;